createdAt,value
2023-03-17T00:01:54.353Z,20.27
2023-03-17T00:04:25.557Z,11.57
2023-03-17T00:06:53.137Z,12.15
2023-03-17T00:09:20.893Z,11.38
2023-03-17T00:11:48.365Z,14.85
2023-03-17T00:14:16.749Z,12.13
2023-03-17T00:16:45.322Z,12.13
2023-03-17T00:19:17.321Z,10.60
2023-03-17T00:21:46.157Z,9.90
2023-03-17T00:24:15.077Z,11.52
2023-03-17T00:26:43.413Z,9.68
2023-03-17T00:29:10.853Z,13.27
2023-03-17T00:31:39.293Z,15.82
2023-03-17T00:34:08.128Z,12.43
2023-03-17T00:36:35.811Z,10.23
2023-03-17T00:39:04.202Z,10.98
2023-03-17T00:41:31.531Z,12.20
2023-03-17T00:43:59.745Z,10.93
2023-03-17T00:46:36.012Z,10.75
2023-03-17T00:49:10.755Z,12.25
2023-03-17T00:51:40.751Z,12.82
2023-03-17T00:54:10.537Z,11.03
2023-03-17T00:56:39.176Z,13.18
2023-03-17T00:59:21.763Z,11.25
2023-03-17T01:01:49.289Z,9.35
2023-03-17T01:04:16.605Z,10.13
2023-03-17T01:06:44.067Z,11.70
2023-03-17T01:09:16.250Z,14.65
2023-03-17T01:11:44.330Z,12.35
2023-03-17T01:14:11.995Z,10.57
2023-03-17T01:16:39.802Z,11.70
2023-03-17T01:19:07.182Z,10.70
2023-03-17T01:21:34.776Z,13.40
2023-03-17T01:24:02.872Z,10.90
2023-03-17T01:26:30.245Z,11.45
2023-03-17T01:28:57.580Z,13.35
2023-03-17T01:31:26.327Z,14.50
2023-03-17T01:33:54.100Z,14.20
2023-03-17T01:36:22.833Z,11.43
2023-03-17T01:38:51.048Z,10.85
2023-03-17T01:41:19.159Z,12.35
2023-03-17T01:43:46.426Z,13.80
2023-03-17T01:46:25.545Z,13.20
2023-03-17T01:49:12.763Z,12.98
2023-03-17T01:51:49.096Z,11.57
2023-03-17T01:54:34.829Z,10.30
2023-03-17T01:57:23.410Z,12.40
2023-03-17T02:00:05.282Z,10.77
2023-03-17T02:02:45.073Z,13.27
2023-03-17T02:05:13.717Z,13.90
2023-03-17T02:07:41.628Z,13.38
2023-03-17T02:10:09.935Z,13.43
2023-03-17T02:12:38.510Z,11.23
2023-03-17T02:15:06.310Z,10.25
2023-03-17T02:17:33.997Z,10.45
2023-03-17T02:20:32.800Z,10.48
2023-03-17T02:23:00.237Z,15.27
2023-03-17T02:25:28.676Z,10.18
2023-03-17T02:27:57.902Z,11.45
2023-03-17T02:30:25.356Z,10.70
2023-03-17T02:32:52.774Z,11.35
2023-03-17T02:35:22.472Z,17.53
2023-03-17T02:37:49.873Z,14.45
2023-03-17T02:40:17.621Z,22.25
2023-03-17T02:42:45.019Z,11.50
2023-03-17T02:45:13.220Z,11.73
2023-03-17T02:47:41.547Z,10.53
2023-03-17T02:50:09.737Z,9.40
2023-03-17T02:52:37.454Z,16.25
2023-03-17T02:55:05.746Z,14.25
2023-03-17T02:57:33.168Z,12.40
2023-03-17T03:00:00.470Z,10.50
2023-03-17T03:02:27.894Z,13.45
2023-03-17T03:04:56.484Z,11.57
2023-03-17T03:07:23.842Z,10.05
2023-03-17T03:09:51.102Z,11.77
2023-03-17T03:12:18.412Z,9.60
2023-03-17T03:14:46.121Z,8.95
2023-03-17T03:17:13.532Z,11.38
2023-03-17T03:19:40.829Z,11.57
2023-03-17T03:22:08.469Z,10.55
2023-03-17T03:24:35.837Z,9.73
2023-03-17T03:27:03.211Z,14.25
2023-03-17T03:29:30.762Z,9.18
2023-03-17T03:31:58.069Z,11.77
2023-03-17T03:34:25.376Z,13.20
2023-03-17T03:36:52.778Z,12.30
2023-03-17T03:39:20.036Z,11.85
2023-03-17T03:41:47.447Z,16.05
2023-03-17T03:44:14.763Z,12.40
2023-03-17T03:46:42.065Z,12.60
2023-03-17T03:49:09.337Z,11.47
2023-03-17T03:51:36.869Z,12.30
2023-03-17T03:54:04.148Z,10.93
2023-03-17T03:56:31.476Z,10.85
2023-03-17T03:58:58.774Z,11.10
2023-03-17T04:01:26.187Z,11.57
2023-03-17T04:03:53.459Z,8.57
2023-03-17T04:06:20.811Z,13.38
2023-03-17T04:08:48.081Z,12.25
2023-03-17T04:11:15.503Z,16.63
2023-03-17T04:13:42.841Z,11.63
2023-03-17T04:16:10.231Z,15.32
2023-03-17T04:18:37.531Z,14.07
2023-03-17T04:21:05.410Z,20.95
2023-03-17T04:23:32.673Z,34.47
2023-03-17T04:26:00.072Z,16.00
2023-03-17T04:28:27.431Z,11.32
2023-03-17T04:30:54.817Z,16.30
2023-03-17T04:33:22.537Z,11.23
2023-03-17T04:35:49.985Z,13.07
2023-03-17T04:38:17.495Z,12.60
2023-03-17T04:40:44.865Z,10.80
2023-03-17T04:43:12.278Z,12.23
2023-03-17T04:45:39.655Z,11.90
2023-03-17T04:48:07.116Z,13.02
2023-03-17T04:50:34.594Z,13.87
2023-03-17T04:53:02.147Z,10.52
2023-03-17T04:55:29.522Z,12.57
2023-03-17T04:57:56.882Z,14.80
2023-03-17T05:00:24.588Z,11.70
2023-03-17T05:02:51.856Z,14.50
2023-03-17T05:05:19.170Z,16.70
2023-03-17T05:07:46.826Z,13.05
2023-03-17T05:10:15.132Z,12.73
2023-03-17T05:12:42.490Z,11.45
2023-03-17T05:15:10.177Z,13.33
2023-03-17T05:17:37.486Z,15.15
2023-03-17T05:20:05.854Z,19.05
2023-03-17T05:22:33.114Z,12.93
2023-03-17T05:25:00.720Z,12.88
2023-03-17T05:27:28.216Z,14.73
2023-03-17T05:29:55.740Z,12.60
2023-03-17T05:32:23.257Z,13.85
2023-03-17T05:34:50.687Z,15.85
2023-03-17T05:37:18.212Z,14.18
2023-03-17T05:39:46.011Z,12.60
2023-03-17T05:42:13.977Z,17.40
2023-03-17T05:44:41.354Z,11.80
2023-03-17T05:47:08.790Z,12.82
2023-03-17T05:49:36.245Z,16.52
2023-03-17T05:52:03.551Z,15.53
2023-03-17T05:54:30.902Z,16.05
2023-03-17T05:56:58.589Z,13.73
2023-03-17T05:59:25.969Z,18.38
2023-03-17T06:01:53.525Z,15.30
2023-03-17T06:04:21.190Z,13.97
2023-03-17T06:06:48.764Z,14.85
2023-03-17T06:09:16.101Z,15.23
2023-03-17T06:11:44.206Z,13.15
2023-03-17T06:14:11.572Z,18.60
2023-03-17T06:16:38.889Z,13.97
2023-03-17T06:19:06.403Z,11.88
2023-03-17T06:21:33.909Z,13.63
2023-03-17T06:24:01.982Z,12.75
2023-03-17T06:26:29.424Z,15.05
2023-03-17T06:28:57.698Z,10.03
2023-03-17T06:31:25.069Z,12.55
2023-03-17T06:33:52.763Z,11.85
2023-03-17T06:36:20.146Z,14.90
2023-03-17T06:38:47.687Z,11.68
2023-03-17T06:41:15.353Z,11.13
2023-03-17T06:43:42.988Z,11.75
2023-03-17T06:46:10.896Z,9.95
2023-03-17T06:48:38.660Z,13.02
2023-03-17T06:51:09.093Z,12.68
2023-03-17T06:53:37.496Z,11.03
2023-03-17T06:56:20.035Z,11.73
2023-03-17T06:58:55.217Z,9.75
2023-03-17T07:01:24.121Z,11.70
2023-03-17T07:04:01.538Z,12.35
2023-03-17T07:06:29.661Z,11.02
2023-03-17T07:08:58.080Z,12.57
2023-03-17T07:11:26.591Z,10.75
2023-03-17T07:13:57.026Z,10.55
2023-03-17T07:16:24.760Z,12.73
2023-03-17T07:18:52.622Z,15.90
2023-03-17T07:21:23.809Z,9.23
2023-03-17T07:23:57.117Z,30.07
2023-03-17T07:26:33.736Z,18.92
2023-03-17T07:29:11.301Z,11.88
2023-03-17T07:31:38.811Z,12.25
2023-03-17T07:34:06.831Z,10.32
2023-03-17T07:36:34.532Z,10.77
2023-03-17T07:39:02.002Z,15.05
2023-03-17T07:41:44.556Z,16.05
2023-03-17T07:44:14.999Z,9.88
2023-03-17T07:46:42.721Z,11.63
2023-03-17T07:49:11.017Z,11.73
2023-03-17T07:51:38.874Z,8.73
2023-03-17T07:54:06.563Z,8.43
2023-03-17T07:56:35.077Z,11.27
2023-03-17T07:59:07.855Z,8.15
2023-03-17T08:01:35.872Z,10.20
2023-03-17T08:04:04.920Z,10.00
2023-03-17T08:06:32.947Z,10.65
2023-03-17T08:09:00.455Z,8.82
2023-03-17T08:11:29.465Z,8.93
2023-03-17T08:13:57.091Z,5.73
2023-03-17T08:16:24.740Z,10.57
2023-03-17T08:18:52.250Z,9.05
2023-03-17T08:21:19.764Z,7.43
2023-03-17T08:23:47.438Z,9.38
2023-03-17T08:26:15.043Z,7.17
2023-03-17T08:28:43.120Z,7.57
2023-03-17T08:31:13.800Z,6.80
2023-03-17T08:33:42.595Z,9.80
2023-03-17T08:36:10.382Z,9.77
2023-03-17T08:38:38.147Z,9.30
2023-03-17T08:41:08.423Z,13.40
2023-03-17T08:43:36.181Z,10.82
2023-03-17T08:46:08.951Z,17.30
2023-03-17T08:48:36.878Z,12.35
2023-03-17T08:51:06.107Z,11.47
2023-03-17T08:53:35.201Z,11.38
2023-03-17T08:56:03.110Z,5.90
2023-03-17T08:58:30.959Z,10.68
2023-03-17T09:01:00.830Z,6.57
2023-03-17T09:03:28.361Z,8.63
2023-03-17T09:05:55.657Z,8.85
2023-03-17T09:08:30.899Z,6.30
2023-03-17T09:10:59.523Z,7.88
2023-03-17T09:13:28.069Z,14.15
2023-03-17T09:15:56.315Z,6.95
2023-03-17T09:18:24.118Z,7.33
2023-03-17T09:20:56.213Z,6.93
2023-03-17T09:23:24.246Z,8.73
2023-03-17T09:25:52.250Z,7.00
2023-03-17T09:28:23.365Z,6.70
2023-03-17T09:30:52.469Z,9.50
2023-03-17T09:33:27.964Z,11.77
2023-03-17T09:35:58.938Z,9.27
2023-03-17T09:38:28.014Z,7.05
2023-03-17T09:41:29.500Z,8.45
2023-03-17T09:44:16.538Z,7.57
2023-03-17T09:46:47.228Z,8.48
2023-03-17T09:49:25.768Z,9.20
2023-03-17T09:51:53.394Z,8.93
2023-03-17T09:54:31.729Z,8.35
2023-03-17T09:57:08.826Z,8.10
2023-03-17T09:59:39.263Z,7.60
2023-03-17T10:02:33.860Z,8.00
2023-03-17T10:05:32.033Z,8.38
2023-03-17T10:08:31.532Z,9.50
2023-03-17T10:11:14.130Z,9.13
2023-03-17T10:13:48.750Z,8.02
2023-03-17T10:16:21.041Z,8.05
2023-03-17T10:19:02.846Z,9.25
2023-03-17T10:21:32.502Z,8.25
2023-03-17T10:24:00.463Z,9.45
2023-03-17T10:26:43.086Z,5.73
2023-03-17T10:29:19.577Z,7.20
2023-03-17T10:31:47.832Z,10.07
2023-03-17T10:34:17.404Z,5.90
2023-03-17T10:36:47.514Z,10.73
2023-03-17T10:39:19.103Z,7.32
2023-03-17T10:41:52.963Z,8.07
2023-03-17T10:44:49.888Z,6.35
2023-03-17T10:47:22.831Z,9.57
2023-03-17T10:49:52.425Z,9.88
2023-03-17T10:52:23.780Z,10.32
2023-03-17T10:54:51.497Z,9.87
2023-03-17T10:57:19.053Z,14.70
2023-03-17T10:59:54.144Z,14.98
2023-03-17T11:02:35.818Z,17.25
2023-03-17T11:05:09.627Z,11.43
2023-03-17T11:07:41.834Z,7.77
2023-03-17T11:10:22.205Z,7.72
2023-03-17T11:12:59.353Z,12.27
2023-03-17T11:15:32.364Z,6.10
2023-03-17T11:18:02.821Z,5.00
2023-03-17T11:20:48.653Z,5.83
2023-03-17T11:23:19.477Z,8.25
2023-03-17T11:25:47.683Z,7.55
2023-03-17T11:28:28.008Z,9.73
2023-03-17T11:31:13.239Z,8.80
2023-03-17T11:34:05.605Z,6.43
2023-03-17T11:36:41.289Z,11.65
2023-03-17T11:39:23.457Z,12.05
2023-03-17T11:42:00.384Z,8.73
2023-03-17T11:44:38.751Z,13.35
2023-03-17T11:47:34.603Z,6.47
2023-03-17T11:50:20.965Z,7.07
2023-03-17T11:53:03.811Z,5.40
2023-03-17T11:55:45.513Z,8.55
2023-03-17T11:58:31.151Z,6.45
2023-03-17T12:01:02.424Z,8.87
2023-03-17T12:03:48.107Z,7.32
2023-03-17T12:06:33.845Z,6.95
2023-03-17T12:09:21.066Z,7.82
2023-03-17T12:11:56.253Z,9.65
2023-03-17T12:14:33.052Z,12.20
2023-03-17T12:17:46.817Z,6.55
2023-03-17T12:20:27.326Z,7.72
2023-03-17T12:23:05.798Z,8.77
2023-03-17T12:25:45.956Z,9.65
2023-03-17T12:28:22.666Z,16.87
2023-03-17T12:30:50.860Z,12.55
2023-03-17T12:33:25.321Z,10.27
2023-03-17T12:35:55.182Z,7.45
2023-03-17T12:38:30.628Z,9.05
2023-03-17T12:41:22.109Z,10.00
2023-03-17T12:44:02.294Z,8.63
2023-03-17T12:46:36.627Z,9.73
2023-03-17T12:49:26.082Z,12.13
2023-03-17T12:52:13.881Z,10.05
2023-03-17T12:54:45.366Z,8.57
2023-03-17T12:57:20.454Z,10.73
2023-03-17T12:59:49.872Z,9.32
2023-03-17T13:02:38.749Z,12.10
2023-03-17T13:05:09.388Z,8.93
2023-03-17T13:07:54.105Z,35.50
2023-03-17T13:10:48.879Z,9.57
2023-03-17T13:13:36.347Z,5.47
2023-03-17T13:16:06.081Z,6.47
2023-03-17T13:18:36.826Z,10.65
2023-03-17T13:21:04.312Z,4.30
2023-03-17T13:23:40.131Z,5.28
2023-03-17T13:26:08.092Z,6.47
2023-03-17T13:28:35.483Z,7.72
2023-03-17T13:31:10.397Z,8.40
2023-03-17T13:33:46.144Z,7.60
2023-03-17T13:36:27.667Z,6.75
2023-03-17T13:39:19.795Z,9.00
2023-03-17T13:42:23.352Z,11.95
2023-03-17T13:45:13.306Z,10.05
2023-03-17T13:47:42.519Z,6.53
2023-03-17T13:50:14.792Z,8.48
2023-03-17T13:52:53.742Z,8.95
2023-03-17T13:55:24.387Z,11.98
2023-03-17T13:57:57.404Z,8.55
2023-03-17T14:00:28.390Z,7.67
2023-03-17T14:03:18.183Z,7.80
2023-03-17T14:05:50.423Z,8.38
2023-03-17T14:08:27.905Z,12.25
2023-03-17T14:11:00.778Z,10.70
2023-03-17T14:13:28.832Z,8.40
2023-03-17T14:16:11.943Z,9.27
2023-03-17T14:18:40.544Z,8.38
2023-03-17T14:21:18.947Z,8.38
2023-03-17T14:24:00.147Z,7.88
2023-03-17T14:26:29.336Z,8.97
2023-03-17T14:28:59.621Z,13.68
2023-03-17T14:31:28.306Z,10.65
2023-03-17T14:33:59.165Z,8.35
2023-03-17T14:36:27.822Z,7.88
2023-03-17T14:38:56.513Z,16.57
2023-03-17T14:41:27.698Z,7.40
2023-03-17T14:44:01.698Z,6.63
2023-03-17T14:46:35.065Z,10.27
2023-03-17T14:49:19.963Z,9.55
2023-03-17T14:51:53.568Z,8.83
2023-03-17T14:54:24.329Z,11.07
2023-03-17T14:57:02.543Z,7.53
2023-03-17T14:59:40.686Z,10.60
2023-03-17T15:02:31.853Z,12.40
2023-03-17T15:04:59.822Z,11.20
2023-03-17T15:07:41.343Z,8.77
2023-03-17T15:10:18.962Z,8.20
2023-03-17T15:12:49.103Z,5.43
2023-03-17T15:15:22.341Z,7.75
2023-03-17T15:17:54.726Z,6.93
2023-03-17T15:20:22.803Z,14.20
2023-03-17T15:22:59.989Z,7.53
2023-03-17T15:25:34.286Z,7.38
2023-03-17T15:28:01.820Z,8.73
2023-03-17T15:30:37.408Z,8.37
2023-03-17T15:33:28.497Z,8.95
2023-03-17T15:36:00.395Z,8.95
2023-03-17T15:38:28.372Z,16.30
2023-03-17T15:40:55.724Z,6.80
2023-03-17T15:43:23.236Z,9.93
2023-03-17T15:45:55.505Z,9.63
2023-03-17T15:48:25.506Z,7.80
2023-03-17T15:50:53.746Z,8.82
2023-03-17T15:53:21.368Z,9.63
2023-03-17T15:55:48.822Z,7.80
2023-03-17T15:58:16.476Z,8.65
2023-03-17T16:00:44.004Z,8.75
2023-03-17T16:03:31.565Z,8.13
2023-03-17T16:06:00.260Z,9.10
2023-03-17T16:08:27.602Z,9.00
2023-03-17T16:10:55.000Z,11.98
2023-03-17T16:13:22.554Z,10.30
2023-03-17T16:16:00.400Z,9.63
2023-03-17T16:18:36.319Z,9.00
2023-03-17T16:21:04.431Z,9.43
2023-03-17T16:23:32.480Z,5.70
2023-03-17T16:26:13.793Z,10.02
2023-03-17T16:28:42.137Z,8.50
2023-03-17T16:31:20.001Z,8.95
2023-03-17T16:33:47.419Z,8.47
2023-03-17T16:36:19.042Z,7.38
2023-03-17T16:38:46.845Z,12.20
2023-03-17T16:41:25.349Z,10.23
2023-03-17T16:43:55.365Z,13.02
2023-03-17T16:46:22.797Z,7.80
2023-03-17T16:48:50.367Z,10.68
2023-03-17T16:51:17.966Z,8.65
2023-03-17T16:53:45.918Z,9.27
2023-03-17T16:56:18.381Z,9.88
2023-03-17T16:58:46.137Z,11.17
2023-03-17T17:01:19.327Z,8.95
2023-03-17T17:03:47.080Z,9.90
2023-03-17T17:06:14.570Z,9.98
2023-03-17T17:08:43.135Z,10.57
2023-03-17T17:11:13.179Z,8.63
2023-03-17T17:13:44.803Z,12.02
2023-03-17T17:16:28.041Z,11.25
2023-03-17T17:18:55.812Z,10.48
2023-03-17T17:21:23.552Z,14.93
2023-03-17T17:23:52.909Z,13.77
2023-03-17T17:26:21.503Z,14.13
2023-03-17T17:28:49.205Z,28.60
2023-03-17T17:31:16.794Z,22.15
2023-03-17T17:33:44.145Z,23.88
2023-03-17T17:36:15.992Z,35.90
2023-03-17T17:38:43.836Z,60.65
2023-03-17T17:41:11.854Z,28.50
2023-03-17T17:43:39.411Z,23.95
2023-03-17T17:46:11.686Z,18.92
2023-03-17T17:48:39.089Z,19.67
2023-03-17T17:51:06.439Z,17.60
2023-03-17T17:53:33.946Z,23.55
2023-03-17T17:56:01.462Z,25.60
2023-03-17T17:58:29.061Z,23.05
2023-03-17T18:00:57.848Z,23.70
2023-03-17T18:03:25.636Z,19.02
2023-03-17T18:05:54.232Z,19.38
2023-03-17T18:08:21.927Z,18.58
2023-03-17T18:10:51.858Z,20.23
2023-03-17T18:13:19.783Z,24.33
2023-03-17T18:15:47.493Z,27.08
2023-03-17T18:18:14.984Z,23.73
2023-03-17T18:20:42.363Z,22.77
2023-03-17T18:23:09.717Z,25.48
2023-03-17T18:25:37.428Z,19.67
2023-03-17T18:28:04.955Z,21.42
2023-03-17T18:30:34.944Z,20.95
2023-03-17T18:33:06.587Z,18.23
2023-03-17T18:35:33.979Z,20.20
2023-03-17T18:38:01.632Z,31.43
2023-03-17T18:40:29.096Z,27.50
2023-03-17T18:42:56.409Z,44.08
2023-03-17T18:45:23.944Z,51.60
2023-03-17T18:47:51.251Z,68.63
2023-03-17T18:50:19.715Z,53.63
2023-03-17T18:52:47.128Z,39.17
2023-03-17T18:55:14.873Z,24.05
2023-03-17T18:57:44.468Z,20.95
2023-03-17T19:00:13.036Z,16.75
2023-03-17T19:02:40.400Z,15.57
2023-03-17T19:05:08.072Z,15.32
2023-03-17T19:07:36.024Z,15.98
2023-03-17T19:10:04.742Z,12.88
2023-03-17T19:12:32.016Z,17.08
2023-03-17T19:15:00.173Z,17.67
2023-03-17T19:17:28.394Z,21.45
2023-03-17T19:19:56.013Z,18.58
2023-03-17T19:22:23.903Z,25.08
2023-03-17T19:24:51.317Z,19.42
2023-03-17T19:27:18.630Z,19.80
2023-03-17T19:29:46.122Z,19.58
2023-03-17T19:32:13.498Z,17.42
2023-03-17T19:34:40.866Z,17.23
2023-03-17T19:37:08.423Z,13.38
2023-03-17T19:39:36.844Z,14.77
2023-03-17T19:42:04.276Z,16.88
2023-03-17T19:44:31.745Z,11.38
2023-03-17T19:47:01.713Z,15.75
2023-03-17T19:49:29.175Z,14.63
2023-03-17T19:51:56.593Z,14.23
2023-03-17T19:54:23.965Z,14.50
2023-03-17T19:56:51.982Z,15.15
2023-03-17T19:59:19.959Z,12.40
2023-03-17T20:01:48.803Z,12.35
2023-03-17T20:04:21.892Z,14.07
2023-03-17T20:06:52.275Z,13.15
2023-03-17T20:09:19.706Z,14.65
2023-03-17T20:11:47.023Z,15.57
2023-03-17T20:14:14.379Z,16.63
2023-03-17T20:16:42.493Z,12.83
2023-03-17T20:19:09.865Z,11.48
2023-03-17T20:21:37.806Z,15.55
2023-03-17T20:24:05.690Z,15.60
2023-03-17T20:26:34.233Z,14.70
2023-03-17T20:29:02.170Z,14.10
2023-03-17T20:31:29.756Z,18.05
2023-03-17T20:33:57.142Z,16.23
2023-03-17T20:36:24.548Z,13.95
2023-03-17T20:38:51.881Z,15.45
2023-03-17T20:41:19.234Z,13.33
2023-03-17T20:43:46.956Z,15.63
2023-03-17T20:46:19.250Z,14.65
2023-03-17T20:48:48.354Z,14.65
2023-03-17T20:51:16.770Z,13.82
2023-03-17T20:53:44.860Z,13.77
2023-03-17T20:56:16.489Z,13.18
2023-03-17T20:58:45.480Z,11.38
2023-03-17T21:01:13.627Z,20.85
2023-03-17T21:03:42.430Z,12.82
2023-03-17T21:06:09.940Z,13.33
2023-03-17T21:08:37.857Z,13.23
2023-03-17T21:11:05.960Z,14.55
2023-03-17T21:13:33.234Z,15.73
2023-03-17T21:16:01.576Z,12.65
2023-03-17T21:18:29.787Z,12.47
2023-03-17T21:20:57.035Z,12.48
2023-03-17T21:23:25.582Z,11.25
2023-03-17T21:25:56.136Z,10.80
2023-03-17T21:28:23.561Z,9.80
2023-03-17T21:30:50.949Z,11.57
2023-03-17T21:33:18.266Z,12.55
2023-03-17T21:35:45.620Z,11.88
2023-03-17T21:38:12.946Z,11.57
2023-03-17T21:40:40.646Z,12.98
2023-03-17T21:43:08.056Z,11.33
2023-03-17T21:45:35.714Z,11.57
2023-03-17T21:48:03.246Z,12.57
2023-03-17T21:50:31.796Z,13.80
2023-03-17T21:52:59.347Z,14.25
2023-03-17T21:55:27.305Z,14.90
2023-03-17T21:57:55.776Z,12.13
2023-03-17T22:00:23.615Z,12.43
2023-03-17T22:02:52.864Z,15.48
2023-03-17T22:05:20.597Z,12.77
2023-03-17T22:07:48.462Z,11.33
2023-03-17T22:10:15.823Z,10.02
2023-03-17T22:12:43.233Z,12.43
2023-03-17T22:15:10.942Z,10.30
2023-03-17T22:17:39.780Z,13.35
2023-03-17T22:20:08.042Z,11.57
2023-03-17T22:22:36.078Z,16.50
2023-03-17T22:25:06.306Z,10.45
2023-03-17T22:27:33.752Z,12.50
2023-03-17T22:30:01.065Z,8.98
2023-03-17T22:32:28.518Z,10.53
2023-03-17T22:34:55.893Z,10.60
2023-03-17T22:37:23.275Z,12.55
2023-03-17T22:39:50.733Z,8.05
2023-03-17T22:42:18.068Z,8.55
2023-03-17T22:44:45.489Z,9.67
2023-03-17T22:47:12.842Z,12.93
2023-03-17T22:49:40.091Z,12.73
2023-03-17T22:52:07.547Z,8.38
2023-03-17T22:54:34.828Z,11.88
2023-03-17T22:57:03.920Z,9.03
2023-03-17T22:59:32.551Z,10.02
2023-03-17T23:01:59.840Z,10.43
2023-03-17T23:04:27.278Z,8.23
2023-03-17T23:06:54.602Z,8.10
2023-03-17T23:09:22.103Z,10.27
2023-03-17T23:11:49.382Z,7.13
2023-03-17T23:14:16.778Z,14.38
2023-03-17T23:16:45.168Z,9.98
2023-03-17T23:19:12.585Z,7.85
2023-03-17T23:21:40.073Z,11.27
2023-03-17T23:24:07.944Z,14.65
2023-03-17T23:26:37.097Z,8.98
2023-03-17T23:29:05.350Z,7.88
2023-03-17T23:31:34.160Z,8.77
2023-03-17T23:34:01.459Z,10.10
2023-03-17T23:36:28.713Z,9.07
2023-03-17T23:38:56.072Z,9.10
2023-03-17T23:41:23.312Z,10.02
2023-03-17T23:43:51.158Z,10.80
2023-03-17T23:46:18.838Z,9.10
2023-03-17T23:48:46.261Z,10.38
2023-03-17T23:51:14.470Z,8.45
2023-03-17T23:53:41.972Z,14.07
2023-03-17T23:56:09.580Z,11.73
2023-03-17T23:58:37.485Z,9.17
